sensor_id;sensor_type;location;lat;lon;timestamp;pressure;altitude;pressure_sealevel;temperature;humidity
13553;BME280;6847;48.830;9.116;2023-04-29T00:00:31;97579.50;;;15.98;76.49
13553;BME280;6847;48.830;9.116;2023-04-29T00:02:57;97576.78;;;15.98;76.37
13553;BME280;6847;48.830;9.116;2023-04-29T00:05:27;97485.66;;;15.42;76.43
13553;BME280;6847;48.830;9.116;2023-04-29T00:07:54;97570.38;;;15.94;76.53
13553;BME280;6847;48.830;9.116;2023-04-29T00:10:21;97571.50;;;15.93;76.70
13553;BME280;6847;48.830;9.116;2023-04-29T00:12:49;97574.53;;;15.91;76.49
13553;BME280;6847;48.830;9.116;2023-04-29T00:15:17;97569.88;;;15.91;76.53
13553;BME280;6847;48.830;9.116;2023-04-29T00:17:45;97568.28;;;15.90;76.37
13553;BME280;6847;48.830;9.116;2023-04-29T00:20:13;97575.34;;;15.91;76.46
13553;BME280;6847;48.830;9.116;2023-04-29T00:22:40;97572.63;;;15.91;76.37
13553;BME280;6847;48.830;9.116;2023-04-29T00:25:08;97573.72;;;15.90;76.39
13553;BME280;6847;48.830;9.116;2023-04-29T00:27:38;97574.53;;;15.91;76.44
13553;BME280;6847;48.830;9.116;2023-04-29T00:30:10;97573.72;;;15.90;76.26
13553;BME280;6847;48.830;9.116;2023-04-29T00:32:37;97565.06;;;15.88;76.31
13553;BME280;6847;48.830;9.116;2023-04-29T00:35:05;97563.44;;;15.87;76.42
13553;BME280;6847;48.830;9.116;2023-04-29T00:37:32;97570.03;;;15.86;76.53
13553;BME280;6847;48.830;9.116;2023-04-29T00:40:07;97572.75;;;15.86;76.68
13553;BME280;6847;48.830;9.116;2023-04-29T00:42:35;97571.16;;;15.85;76.52
13553;BME280;6847;48.830;9.116;2023-04-29T00:45:04;97569.56;;;15.84;76.31
13553;BME280;6847;48.830;9.116;2023-04-29T00:47:34;97542.06;;;15.64;76.46
13553;BME280;6847;48.830;9.116;2023-04-29T00:50:06;97574.03;;;15.80;76.47
13553;BME280;6847;48.830;9.116;2023-04-29T00:52:33;97574.66;;;15.77;76.36
13553;BME280;6847;48.830;9.116;2023-04-29T00:55:01;97576.94;;;15.75;76.41
13553;BME280;6847;48.830;9.116;2023-04-29T00:57:32;97545.38;;;15.52;76.17
13553;BME280;6847;48.830;9.116;2023-04-29T01:00:00;97565.97;;;15.58;76.49
13553;BME280;6847;48.830;9.116;2023-04-29T01:02:28;97555.31;;;15.48;76.33
13553;BME280;6847;48.830;9.116;2023-04-29T01:04:56;97576.88;;;15.58;76.43
13553;BME280;6847;48.830;9.116;2023-04-29T01:07:29;97592.63;;;15.61;76.20
13553;BME280;6847;48.830;9.116;2023-04-29T01:10:02;97567.38;;;15.47;76.27
13553;BME280;6847;48.830;9.116;2023-04-29T01:12:33;97589.41;;;15.59;76.36
13553;BME280;6847;48.830;9.116;2023-04-29T01:15:09;97573.44;;;15.44;76.20
13553;BME280;6847;48.830;9.116;2023-04-29T01:17:40;97569.09;;;15.43;76.29
13553;BME280;6847;48.830;9.116;2023-04-29T01:20:14;97589.84;;;15.52;76.50
13553;BME280;6847;48.830;9.116;2023-04-29T01:22:41;97440.66;;;14.57;76.07
13553;BME280;6847;48.830;9.116;2023-04-29T01:25:13;97588.53;;;15.50;76.49
13553;BME280;6847;48.830;9.116;2023-04-29T01:27:50;97593.50;;;15.48;76.36
13553;BME280;6847;48.830;9.116;2023-04-29T01:30:25;97560.72;;;15.31;76.33
13553;BME280;6847;48.830;9.116;2023-04-29T01:32:59;97593.03;;;15.46;76.22
13553;BME280;6847;48.830;9.116;2023-04-29T01:35:41;97595.75;;;15.46;76.16
13553;BME280;6847;48.830;9.116;2023-04-29T01:38:16;97595.28;;;15.44;76.25
13553;BME280;6847;48.830;9.116;2023-04-29T01:40:57;97590.94;;;15.43;76.22
13553;BME280;6847;48.830;9.116;2023-04-29T01:43:27;97600.22;;;15.42;76.05
13553;BME280;6847;48.830;9.116;2023-04-29T01:45:58;97592.66;;;15.39;76.07
13553;BME280;6847;48.830;9.116;2023-04-29T01:48:25;97584.03;;;15.37;76.21
13553;BME280;6847;48.830;9.116;2023-04-29T01:50:53;97587.38;;;15.34;76.10
13553;BME280;6847;48.830;9.116;2023-04-29T01:53:20;97582.84;;;15.29;76.06
13553;BME280;6847;48.830;9.116;2023-04-29T01:55:48;97563.88;;;15.15;76.26
13553;BME280;6847;48.830;9.116;2023-04-29T01:58:15;97560.47;;;15.10;76.06
13553;BME280;6847;48.830;9.116;2023-04-29T02:00:42;97591.69;;;15.26;76.27
13553;BME280;6847;48.830;9.116;2023-04-29T02:03:11;97580.75;;;15.17;76.21
13553;BME280;6847;48.830;9.116;2023-04-29T02:05:39;97590.38;;;15.24;76.03
13553;BME280;6847;48.830;9.116;2023-04-29T02:08:09;97591.50;;;15.23;76.19
13553;BME280;6847;48.830;9.116;2023-04-29T02:10:36;97589.88;;;15.22;76.19
13553;BME280;6847;48.830;9.116;2023-04-29T02:13:06;97584.44;;;15.22;76.27
13553;BME280;6847;48.830;9.116;2023-04-29T02:15:36;97588.25;;;15.21;76.18
13553;BME280;6847;48.830;9.116;2023-04-29T02:18:03;97587.47;;;15.20;76.23
13553;BME280;6847;48.830;9.116;2023-04-29T02:20:31;97592.09;;;15.19;76.10
13553;BME280;6847;48.830;9.116;2023-04-29T02:22:59;97588.09;;;15.17;75.96
13553;BME280;6847;48.830;9.116;2023-04-29T02:25:27;97593.88;;;15.15;76.21
13553;BME280;6847;48.830;9.116;2023-04-29T02:27:54;97573.44;;;15.04;76.07
13553;BME280;6847;48.830;9.116;2023-04-29T02:30:22;97563.97;;;15.02;75.93
13553;BME280;6847;48.830;9.116;2023-04-29T02:32:49;97593.38;;;15.13;76.08
13553;BME280;6847;48.830;9.116;2023-04-29T02:35:17;97583.09;;;15.10;75.98
13553;BME280;6847;48.830;9.116;2023-04-29T02:37:44;97590.16;;;15.11;76.03
13553;BME280;6847;48.830;9.116;2023-04-29T02:40:12;97591.25;;;15.10;75.78
13553;BME280;6847;48.830;9.116;2023-04-29T02:42:44;97599.44;;;15.10;75.77
13553;BME280;6847;48.830;9.116;2023-04-29T02:45:11;97593.50;;;15.08;75.77
13553;BME280;6847;48.830;9.116;2023-04-29T02:47:39;97601.69;;;15.08;75.66
13553;BME280;6847;48.830;9.116;2023-04-29T02:50:07;97593.66;;;15.03;75.60
13553;BME280;6847;48.830;9.116;2023-04-29T02:52:34;97597.00;;;15.00;75.51
13553;BME280;6847;48.830;9.116;2023-04-29T02:55:01;97594.91;;;14.97;75.57
13553;BME280;6847;48.830;9.116;2023-04-29T02:57:28;97594.41;;;14.95;75.39
13553;BME280;6847;48.830;9.116;2023-04-29T02:59:56;97583.28;;;14.83;75.30
13553;BME280;6847;48.830;9.116;2023-04-29T03:02:27;97580.69;;;14.78;75.30
13553;BME280;6847;48.830;9.116;2023-04-29T03:04:55;97596.78;;;14.88;75.58
13553;BME280;6847;48.830;9.116;2023-04-29T03:07:23;97604.47;;;14.86;75.41
13553;BME280;6847;48.830;9.116;2023-04-29T03:09:52;97601.75;;;14.86;75.42
13553;BME280;6847;48.830;9.116;2023-04-29T03:12:19;97608.31;;;14.85;75.45
13553;BME280;6847;48.830;9.116;2023-04-29T03:14:46;97608.91;;;14.82;75.17
13553;BME280;6847;48.830;9.116;2023-04-29T03:17:13;97611.94;;;14.80;75.28
13553;BME280;6847;48.830;9.116;2023-04-29T03:19:40;97596.66;;;14.71;75.29
13553;BME280;6847;48.830;9.116;2023-04-29T03:22:08;97602.97;;;14.80;75.34
13553;BME280;6847;48.830;9.116;2023-04-29T03:24:35;97611.13;;;14.80;75.43
13553;BME280;6847;48.830;9.116;2023-04-29T03:27:04;97548.72;;;14.39;75.27
13553;BME280;6847;48.830;9.116;2023-04-29T03:29:31;97602.50;;;14.78;75.23
13553;BME280;6847;48.830;9.116;2023-04-29T03:31:58;97604.72;;;14.76;75.01
13553;BME280;6847;48.830;9.116;2023-04-29T03:34:25;97599.88;;;14.73;75.02
13553;BME280;6847;48.830;9.116;2023-04-29T03:36:51;97553.03;;;14.40;74.97
13553;BME280;6847;48.830;9.116;2023-04-29T03:39:21;97584.22;;;14.56;74.92
13553;BME280;6847;48.830;9.116;2023-04-29T03:41:47;97594.06;;;14.66;74.96
13553;BME280;6847;48.830;9.116;2023-04-29T03:44:14;97597.91;;;14.65;74.79
13553;BME280;6847;48.830;9.116;2023-04-29T03:46:40;97599.31;;;14.62;74.83
13553;BME280;6847;48.830;9.116;2023-04-29T03:49:07;97599.16;;;14.59;74.85
13553;BME280;6847;48.830;9.116;2023-04-29T03:51:34;97600.28;;;14.58;74.87
13553;BME280;6847;48.830;9.116;2023-04-29T03:54:01;97576.63;;;14.44;74.94
13553;BME280;6847;48.830;9.116;2023-04-29T03:56:28;97597.84;;;14.56;75.01
13553;BME280;6847;48.830;9.116;2023-04-29T03:58:58;97602.00;;;14.54;74.78
13553;BME280;6847;48.830;9.116;2023-04-29T04:01:25;97599.88;;;14.51;74.71
13553;BME280;6847;48.830;9.116;2023-04-29T04:03:52;97612.53;;;14.47;74.83
13553;BME280;6847;48.830;9.116;2023-04-29T04:06:19;97604.47;;;14.41;74.77
13553;BME280;6847;48.830;9.116;2023-04-29T04:08:45;97605.06;;;14.38;74.78
13553;BME280;6847;48.830;9.116;2023-04-29T04:11:12;97609.50;;;14.34;74.67
13553;BME280;6847;48.830;9.116;2023-04-29T04:13:42;97612.84;;;14.31;74.63
13553;BME280;6847;48.830;9.116;2023-04-29T04:16:10;97590.41;;;14.12;74.92
13553;BME280;6847;48.830;9.116;2023-04-29T04:24:16;97554.22;;;13.89;74.97
13553;BME280;6847;48.830;9.116;2023-04-29T04:27:01;97632.31;;;14.38;74.96
13553;BME280;6847;48.830;9.116;2023-04-29T04:29:35;97636.03;;;14.42;75.18
13553;BME280;6847;48.830;9.116;2023-04-29T04:32:03;97634.31;;;14.47;75.41
13553;BME280;6847;48.830;9.116;2023-04-29T04:34:34;97599.88;;;14.28;75.50
13553;BME280;6847;48.830;9.116;2023-04-29T04:37:00;97642.75;;;14.59;75.61
13553;BME280;6847;48.830;9.116;2023-04-29T04:39:27;97597.50;;;14.35;75.60
13553;BME280;6847;48.830;9.116;2023-04-29T04:41:54;97645.53;;;14.67;75.53
13553;BME280;6847;48.830;9.116;2023-04-29T04:44:23;97653.56;;;14.72;75.59
13553;BME280;6847;48.830;9.116;2023-04-29T04:46:50;97655.38;;;14.77;75.57
13553;BME280;6847;48.830;9.116;2023-04-29T04:49:19;97615.13;;;14.52;75.75
13553;BME280;6847;48.830;9.116;2023-04-29T04:51:53;97470.72;;;13.62;75.53
13553;BME280;6847;48.830;9.116;2023-04-29T04:54:43;97556.91;;;14.25;75.71
13553;BME280;6847;48.830;9.116;2023-04-29T04:57:12;97518.47;;;14.04;75.42
13553;BME280;6847;48.830;9.116;2023-04-29T04:59:39;97562.72;;;14.32;75.28
13553;BME280;6847;48.830;9.116;2023-04-29T05:02:07;97672.09;;;15.06;75.12
13553;BME280;6847;48.830;9.116;2023-04-29T05:04:34;97625.47;;;14.86;75.37
13553;BME280;6847;48.830;9.116;2023-04-29T05:07:01;97664.88;;;15.10;75.48
13553;BME280;6847;48.830;9.116;2023-04-29T05:09:28;97629.97;;;14.90;75.75
13553;BME280;6847;48.830;9.116;2023-04-29T05:11:56;97693.88;;;15.29;75.52
13553;BME280;6847;48.830;9.116;2023-04-29T05:14:26;97696.03;;;15.40;75.56
13553;BME280;6847;48.830;9.116;2023-04-29T05:16:57;97706.56;;;15.56;75.70
13553;BME280;6847;48.830;9.116;2023-04-29T05:19:29;97705.34;;;15.70;75.57
13553;BME280;6847;48.830;9.116;2023-04-29T05:22:11;97705.06;;;15.80;75.77
13553;BME280;6847;48.830;9.116;2023-04-29T05:24:38;97666.13;;;15.58;75.64
13553;BME280;6847;48.830;9.116;2023-04-29T05:27:05;97690.91;;;15.78;75.57
13553;BME280;6847;48.830;9.116;2023-04-29T05:29:33;97722.19;;;16.12;75.82
13553;BME280;6847;48.830;9.116;2023-04-29T05:32:02;97722.53;;;16.19;75.98
13553;BME280;6847;48.830;9.116;2023-04-29T05:34:31;97699.72;;;16.15;75.69
13553;BME280;6847;48.830;9.116;2023-04-29T05:37:06;97706.47;;;16.26;75.72
13553;BME280;6847;48.830;9.116;2023-04-29T05:39:39;97727.91;;;16.50;76.05
13553;BME280;6847;48.830;9.116;2023-04-29T05:42:06;97730.03;;;16.61;75.99
13553;BME280;6847;48.830;9.116;2023-04-29T05:44:40;97681.44;;;16.41;75.98
13553;BME280;6847;48.830;9.116;2023-04-29T05:47:08;97702.50;;;16.58;75.71
13553;BME280;6847;48.830;9.116;2023-04-29T05:49:38;97731.84;;;16.83;75.52
13553;BME280;6847;48.830;9.116;2023-04-29T05:52:05;97737.13;;;16.97;75.66
13553;BME280;6847;48.830;9.116;2023-04-29T05:54:33;97601.72;;;16.22;75.71
13553;BME280;6847;48.830;9.116;2023-04-29T05:57:01;97619.09;;;16.43;75.65
13553;BME280;6847;48.830;9.116;2023-04-29T05:59:28;97662.50;;;16.71;75.43
13553;BME280;6847;48.830;9.116;2023-04-29T06:01:58;97748.38;;;17.21;75.22
13553;BME280;6847;48.830;9.116;2023-04-29T06:04:27;97754.16;;;17.20;75.17
13553;BME280;6847;48.830;9.116;2023-04-29T06:06:56;97693.38;;;16.80;75.48
13553;BME280;6847;48.830;9.116;2023-04-29T06:09:23;97765.59;;;17.22;75.30
13553;BME280;6847;48.830;9.116;2023-04-29T06:11:51;97769.47;;;17.21;75.23
13553;BME280;6847;48.830;9.116;2023-04-29T06:14:18;97758.03;;;17.10;75.14
13553;BME280;6847;48.830;9.116;2023-04-29T06:16:45;97773.50;;;17.23;75.47
13553;BME280;6847;48.830;9.116;2023-04-29T06:19:13;97777.97;;;17.28;75.55
13553;BME280;6847;48.830;9.116;2023-04-29T06:21:40;97786.34;;;17.31;75.16
13553;BME280;6847;48.830;9.116;2023-04-29T06:24:07;97787.16;;;17.32;75.25
13553;BME280;6847;48.830;9.116;2023-04-29T06:26:38;97789.25;;;17.26;74.97
13553;BME280;6847;48.830;9.116;2023-04-29T06:29:04;97788.78;;;17.33;74.91
13553;BME280;6847;48.830;9.116;2023-04-29T06:31:31;97797.59;;;17.38;75.05
13553;BME280;6847;48.830;9.116;2023-04-29T06:33:58;97768.16;;;17.18;75.04
13553;BME280;6847;48.830;9.116;2023-04-29T06:36:29;97805.19;;;17.42;74.73
13553;BME280;6847;48.830;9.116;2023-04-29T06:38:57;97809.03;;;17.41;74.98
13553;BME280;6847;48.830;9.116;2023-04-29T06:41:28;97805.63;;;17.44;74.83
13553;BME280;6847;48.830;9.116;2023-04-29T06:43:54;97764.78;;;17.21;75.03
13553;BME280;6847;48.830;9.116;2023-04-29T06:46:22;97779.09;;;17.35;74.92
13553;BME280;6847;48.830;9.116;2023-04-29T06:48:48;97817.72;;;17.77;74.84
13553;BME280;6847;48.830;9.116;2023-04-29T06:51:15;97822.16;;;17.99;74.78
13553;BME280;6847;48.830;9.116;2023-04-29T06:53:42;97828.38;;;18.17;74.75
13553;BME280;6847;48.830;9.116;2023-04-29T06:56:10;97629.63;;;17.05;73.93
13553;BME280;6847;48.830;9.116;2023-04-29T06:58:38;97826.34;;;18.43;74.12
13553;BME280;6847;48.830;9.116;2023-04-29T07:01:05;97792.69;;;18.34;74.64
13553;BME280;6847;48.830;9.116;2023-04-29T07:03:32;97743.25;;;18.22;74.44
13553;BME280;6847;48.830;9.116;2023-04-29T07:05:59;97797.41;;;18.83;74.70
13553;BME280;6847;48.830;9.116;2023-04-29T07:08:25;97800.59;;;19.15;74.25
13553;BME280;6847;48.830;9.116;2023-04-29T07:10:53;97848.44;;;19.47;73.88
13553;BME280;6847;48.830;9.116;2023-04-29T07:13:20;97816.50;;;19.42;73.53
13553;BME280;6847;48.830;9.116;2023-04-29T07:15:48;97836.66;;;19.46;73.55
13553;BME280;6847;48.830;9.116;2023-04-29T07:18:14;97842.56;;;19.36;73.67
13553;BME280;6847;48.830;9.116;2023-04-29T07:20:42;97845.50;;;19.31;73.49
13553;BME280;6847;48.830;9.116;2023-04-29T07:23:10;97857.44;;;19.56;73.58
13553;BME280;6847;48.830;9.116;2023-04-29T07:25:36;97818.91;;;19.44;73.76
13553;BME280;6847;48.830;9.116;2023-04-29T07:28:03;97858.50;;;19.64;73.77
13553;BME280;6847;48.830;9.116;2023-04-29T07:30:29;97862.53;;;19.66;73.80
13553;BME280;6847;48.830;9.116;2023-04-29T07:32:57;97854.94;;;19.63;73.46
13553;BME280;6847;48.830;9.116;2023-04-29T07:35:24;97767.81;;;18.98;73.22
13553;BME280;6847;48.830;9.116;2023-04-29T07:37:58;97857.16;;;19.49;73.50
13553;BME280;6847;48.830;9.116;2023-04-29T07:40:25;97833.19;;;19.37;73.48
13553;BME280;6847;48.830;9.116;2023-04-29T07:42:51;97854.81;;;19.59;73.23
13553;BME280;6847;48.830;9.116;2023-04-29T07:45:18;97856.91;;;19.63;73.38
13553;BME280;6847;48.830;9.116;2023-04-29T07:47:45;97807.38;;;19.30;73.55
13553;BME280;6847;48.830;9.116;2023-04-29T07:50:13;97868.94;;;19.70;73.24
13553;BME280;6847;48.830;9.116;2023-04-29T07:52:40;97868.94;;;19.70;72.99
13553;BME280;6847;48.830;9.116;2023-04-29T07:55:07;97863.44;;;19.70;73.07
13553;BME280;6847;48.830;9.116;2023-04-29T07:57:34;97867.31;;;19.69;72.92
13553;BME280;6847;48.830;9.116;2023-04-29T08:00:01;97875.22;;;19.71;73.08
13553;BME280;6847;48.830;9.116;2023-04-29T08:02:27;97876.50;;;19.73;73.15
13553;BME280;6847;48.830;9.116;2023-04-29T08:04:54;97864.66;;;19.61;72.85
13553;BME280;6847;48.830;9.116;2023-04-29T08:07:24;97846.03;;;19.45;72.83
13553;BME280;6847;48.830;9.116;2023-04-29T08:09:51;97889.28;;;19.69;72.57
13553;BME280;6847;48.830;9.116;2023-04-29T08:12:17;97891.59;;;19.67;72.50
13553;BME280;6847;48.830;9.116;2023-04-29T08:14:44;97892.41;;;19.68;72.80
13553;BME280;6847;48.830;9.116;2023-04-29T08:17:13;97892.66;;;19.75;72.58
13553;BME280;6847;48.830;9.116;2023-04-29T08:19:39;97891.19;;;19.77;72.77
13553;BME280;6847;48.830;9.116;2023-04-29T08:22:06;97884.88;;;19.77;72.66
13553;BME280;6847;48.830;9.116;2023-04-29T08:24:34;97866.31;;;19.74;72.46
13553;BME280;6847;48.830;9.116;2023-04-29T08:27:00;97901.44;;;20.01;72.33
13553;BME280;6847;48.830;9.116;2023-04-29T08:29:29;97906.28;;;20.04;72.19
13553;BME280;6847;48.830;9.116;2023-04-29T08:31:57;97908.41;;;19.99;71.76
13553;BME280;6847;48.830;9.116;2023-04-29T08:34:26;97914.69;;;19.87;71.92
13553;BME280;6847;48.830;9.116;2023-04-29T08:36:52;97904.56;;;19.79;71.99
13553;BME280;6847;48.830;9.116;2023-04-29T08:39:19;97878.59;;;19.55;72.14
13553;BME280;6847;48.830;9.116;2023-04-29T08:41:47;97914.91;;;19.61;72.00
13553;BME280;6847;48.830;9.116;2023-04-29T08:44:17;97901.91;;;19.49;72.03
13553;BME280;6847;48.830;9.116;2023-04-29T08:46:44;97911.41;;;19.52;72.30
13553;BME280;6847;48.830;9.116;2023-04-29T08:49:11;97900.34;;;19.61;71.97
13553;BME280;6847;48.830;9.116;2023-04-29T08:51:41;97902.28;;;19.81;72.09
13553;BME280;6847;48.830;9.116;2023-04-29T08:54:12;97909.38;;;20.03;71.81
13553;BME280;6847;48.830;9.116;2023-04-29T08:56:44;97912.53;;;20.25;71.42
13553;BME280;6847;48.830;9.116;2023-04-29T08:59:17;97912.59;;;20.50;71.21
13553;BME280;6847;48.830;9.116;2023-04-29T09:01:47;97918.59;;;20.64;70.88
13553;BME280;6847;48.830;9.116;2023-04-29T09:04:26;97861.25;;;20.42;70.74
13553;BME280;6847;48.830;9.116;2023-04-29T09:06:55;97922.16;;;21.01;70.60
13553;BME280;6847;48.830;9.116;2023-04-29T09:09:23;97916.09;;;21.20;70.34
13553;BME280;6847;48.830;9.116;2023-04-29T09:11:52;97923.88;;;21.30;70.27
13553;BME280;6847;48.830;9.116;2023-04-29T09:14:21;97926.16;;;21.52;69.98
13553;BME280;6847;48.830;9.116;2023-04-29T09:16:48;97920.06;;;21.87;69.55
13553;BME280;6847;48.830;9.116;2023-04-29T09:19:28;97929.84;;;22.56;68.75
13553;BME280;6847;48.830;9.116;2023-04-29T09:21:57;97928.84;;;23.42;67.40
13553;BME280;6847;48.830;9.116;2023-04-29T09:24:24;97898.88;;;23.98;66.28
13553;BME280;6847;48.830;9.116;2023-04-29T09:26:58;97929.00;;;24.23;66.01
13553;BME280;6847;48.830;9.116;2023-04-29T09:29:26;97936.22;;;24.08;66.52
13553;BME280;6847;48.830;9.116;2023-04-29T09:31:55;97932.78;;;24.15;66.71
13553;BME280;6847;48.830;9.116;2023-04-29T09:34:30;97933.97;;;24.33;66.53
13553;BME280;6847;48.830;9.116;2023-04-29T09:36:57;97928.56;;;24.02;66.38
13553;BME280;6847;48.830;9.116;2023-04-29T09:39:24;97939.19;;;23.80;66.61
13553;BME280;6847;48.830;9.116;2023-04-29T09:41:58;97934.59;;;23.49;67.41
13553;BME280;6847;48.830;9.116;2023-04-29T09:44:29;97945.00;;;23.24;67.73
13553;BME280;6847;48.830;9.116;2023-04-29T09:46:58;97936.66;;;23.05;68.07
13553;BME280;6847;48.830;9.116;2023-04-29T09:49:28;97938.66;;;22.89;68.17
13553;BME280;6847;48.830;9.116;2023-04-29T09:51:56;97933.19;;;22.61;68.21
13553;BME280;6847;48.830;9.116;2023-04-29T09:54:23;97942.50;;;22.57;68.41
13553;BME280;6847;48.830;9.116;2023-04-29T09:56:54;97945.91;;;22.66;68.19
13553;BME280;6847;48.830;9.116;2023-04-29T09:59:22;97945.03;;;22.93;68.05
13553;BME280;6847;48.830;9.116;2023-04-29T10:01:53;97947.22;;;23.35;67.24
13553;BME280;6847;48.830;9.116;2023-04-29T10:04:21;97956.38;;;24.47;65.65
13553;BME280;6847;48.830;9.116;2023-04-29T10:06:51;97953.81;;;25.53;63.95
13553;BME280;6847;48.830;9.116;2023-04-29T10:09:23;97956.47;;;27.09;61.19
13553;BME280;6847;48.830;9.116;2023-04-29T10:11:54;97950.28;;;27.92;60.40
13553;BME280;6847;48.830;9.116;2023-04-29T10:14:22;97949.06;;;29.26;58.56
13553;BME280;6847;48.830;9.116;2023-04-29T10:17:00;97959.59;;;31.00;55.93
13553;BME280;6847;48.830;9.116;2023-04-29T10:19:33;97954.56;;;31.73;55.07
13553;BME280;6847;48.830;9.116;2023-04-29T10:22:06;97955.13;;;31.54;54.90
13553;BME280;6847;48.830;9.116;2023-04-29T10:24:38;97959.00;;;30.71;56.25
13553;BME280;6847;48.830;9.116;2023-04-29T10:27:06;97965.97;;;31.00;56.47
13553;BME280;6847;48.830;9.116;2023-04-29T10:29:51;97927.16;;;31.54;55.36
13553;BME280;6847;48.830;9.116;2023-04-29T10:32:22;97959.56;;;32.30;54.70
13553;BME280;6847;48.830;9.116;2023-04-29T10:34:51;97945.31;;;33.01;54.08
13553;BME280;6847;48.830;9.116;2023-04-29T10:37:19;97953.63;;;33.35;53.99
13553;BME280;6847;48.830;9.116;2023-04-29T10:39:51;97948.84;;;33.32;53.74
13553;BME280;6847;48.830;9.116;2023-04-29T10:42:30;97945.41;;;33.68;53.08
13553;BME280;6847;48.830;9.116;2023-04-29T10:45:25;97945.69;;;33.73;53.63
13553;BME280;6847;48.830;9.116;2023-04-29T10:48:24;97946.59;;;33.20;54.09
13553;BME280;6847;48.830;9.116;2023-04-29T10:51:00;97929.94;;;32.86;54.15
13553;BME280;6847;48.830;9.116;2023-04-29T10:53:30;97924.09;;;32.13;54.49
13553;BME280;6847;48.830;9.116;2023-04-29T10:56:03;97935.66;;;31.84;54.25
13553;BME280;6847;48.830;9.116;2023-04-29T10:58:35;97871.28;;;30.54;55.12
13553;BME280;6847;48.830;9.116;2023-04-29T11:01:02;97940.16;;;29.98;56.13
13553;BME280;6847;48.830;9.116;2023-04-29T11:04:01;97932.31;;;29.19;57.14
13553;BME280;6847;48.830;9.116;2023-04-29T11:06:38;97925.91;;;29.64;56.76
13553;BME280;6847;48.830;9.116;2023-04-29T11:09:11;97930.66;;;29.74;56.12
13553;BME280;6847;48.830;9.116;2023-04-29T11:13:23;97922.75;;;29.55;56.05
13553;BME280;6847;48.830;9.116;2023-04-29T11:15:52;97929.81;;;29.92;55.64
13553;BME280;6847;48.830;9.116;2023-04-29T11:18:19;97935.25;;;30.27;54.52
13553;BME280;6847;48.830;9.116;2023-04-29T11:21:10;97934.16;;;30.07;55.09
13553;BME280;6847;48.830;9.116;2023-04-29T11:23:39;97925.16;;;29.42;56.21
13553;BME280;6847;48.830;9.116;2023-04-29T11:26:10;97925.16;;;28.86;56.51
13553;BME280;6847;48.830;9.116;2023-04-29T11:28:41;97921.06;;;28.41;57.10
13553;BME280;6847;48.830;9.116;2023-04-29T11:31:08;97928.00;;;27.92;57.71
13553;BME280;6847;48.830;9.116;2023-04-29T11:33:35;97925.00;;;27.53;57.79
13553;BME280;6847;48.830;9.116;2023-04-29T11:36:06;97918.47;;;27.24;58.06
13553;BME280;6847;48.830;9.116;2023-04-29T11:38:38;97921.03;;;26.96;58.05
13553;BME280;6847;48.830;9.116;2023-04-29T11:41:07;97926.31;;;26.67;57.72
13553;BME280;6847;48.830;9.116;2023-04-29T11:43:40;97932.53;;;26.53;58.00
13553;BME280;6847;48.830;9.116;2023-04-29T11:46:11;97937.28;;;26.53;57.85
13553;BME280;6847;48.830;9.116;2023-04-29T11:48:46;97934.91;;;26.55;57.17
13553;BME280;6847;48.830;9.116;2023-04-29T11:51:14;97939.69;;;26.58;57.15
13553;BME280;6847;48.830;9.116;2023-04-29T11:53:42;97932.78;;;26.82;56.40
13553;BME280;6847;48.830;9.116;2023-04-29T11:56:09;97933.78;;;27.00;56.18
13553;BME280;6847;48.830;9.116;2023-04-29T11:58:45;97941.66;;;26.95;55.78
13553;BME280;6847;48.830;9.116;2023-04-29T12:01:12;97944.72;;;26.82;55.74
13553;BME280;6847;48.830;9.116;2023-04-29T12:03:40;97944.66;;;26.79;55.82
13553;BME280;6847;48.830;9.116;2023-04-29T12:06:12;97917.63;;;26.72;55.67
13553;BME280;6847;48.830;9.116;2023-04-29T12:08:41;97944.63;;;26.75;55.61
13553;BME280;6847;48.830;9.116;2023-04-29T12:11:13;97947.53;;;26.89;55.75
13553;BME280;6847;48.830;9.116;2023-04-29T12:13:41;97948.28;;;27.27;55.26
13553;BME280;6847;48.830;9.116;2023-04-29T12:16:08;97929.75;;;27.52;54.71
13553;BME280;6847;48.830;9.116;2023-04-29T12:18:36;97939.13;;;27.85;54.39
13553;BME280;6847;48.830;9.116;2023-04-29T12:21:04;97946.38;;;28.07;54.16
13553;BME280;6847;48.830;9.116;2023-04-29T12:23:34;97953.25;;;28.24;54.10
13553;BME280;6847;48.830;9.116;2023-04-29T12:26:01;97943.34;;;28.44;53.85
13553;BME280;6847;48.830;9.116;2023-04-29T12:28:29;97940.59;;;28.55;54.07
13553;BME280;6847;48.830;9.116;2023-04-29T12:30:58;97948.19;;;28.58;53.91
13553;BME280;6847;48.830;9.116;2023-04-29T12:33:27;97949.00;;;28.69;53.82
13553;BME280;6847;48.830;9.116;2023-04-29T12:35:56;97944.25;;;28.91;53.58
13553;BME280;6847;48.830;9.116;2023-04-29T12:38:26;97957.81;;;29.24;53.15
13553;BME280;6847;48.830;9.116;2023-04-29T12:40:53;97943.47;;;29.43;52.74
13553;BME280;6847;48.830;9.116;2023-04-29T12:43:25;97957.78;;;29.70;52.18
13553;BME280;6847;48.830;9.116;2023-04-29T12:45:53;97960.53;;;29.85;51.92
13553;BME280;6847;48.830;9.116;2023-04-29T12:48:28;97964.91;;;29.93;52.06
13553;BME280;6847;48.830;9.116;2023-04-29T12:50:56;97967.28;;;30.05;51.44
13553;BME280;6847;48.830;9.116;2023-04-29T12:53:24;97964.81;;;30.21;51.07
13553;BME280;6847;48.830;9.116;2023-04-29T12:55:51;97976.28;;;30.44;50.70
13553;BME280;6847;48.830;9.116;2023-04-29T12:58:19;97970.19;;;30.71;50.56
13553;BME280;6847;48.830;9.116;2023-04-29T13:00:46;97975.50;;;31.06;49.50
13553;BME280;6847;48.830;9.116;2023-04-29T13:03:14;97972.72;;;31.54;48.64
13553;BME280;6847;48.830;9.116;2023-04-29T13:05:42;97950.41;;;31.51;48.49
13553;BME280;6847;48.830;9.116;2023-04-29T13:08:09;97980.28;;;31.61;48.64
13553;BME280;6847;48.830;9.116;2023-04-29T13:10:36;97973.50;;;31.99;48.20
13553;BME280;6847;48.830;9.116;2023-04-29T13:13:03;97972.31;;;32.61;47.46
13553;BME280;6847;48.830;9.116;2023-04-29T13:15:32;97984.19;;;33.30;46.53
13553;BME280;6847;48.830;9.116;2023-04-29T13:17:59;97976.06;;;33.82;46.47
13553;BME280;6847;48.830;9.116;2023-04-29T13:20:26;97978.53;;;34.20;45.99
13553;BME280;6847;48.830;9.116;2023-04-29T13:22:54;97982.50;;;34.42;45.51
13553;BME280;6847;48.830;9.116;2023-04-29T13:25:24;97986.75;;;34.10;46.45
13553;BME280;6847;48.830;9.116;2023-04-29T13:27:51;97987.59;;;33.64;46.56